createdAt,value
2018-08-11T00:00:25.608Z,4.20
2018-08-11T00:02:54.284Z,4.60
2018-08-11T00:05:22.929Z,4.67
2018-08-11T00:07:51.615Z,5.80
2018-08-11T00:10:20.339Z,5.63
2018-08-11T00:12:48.871Z,7.43
2018-08-11T00:15:19.587Z,7.50
2018-08-11T00:17:48.322Z,7.77
2018-08-11T00:20:21.891Z,6.17
2018-08-11T00:22:50.475Z,5.23
2018-08-11T00:25:19.035Z,5.43
2018-08-11T00:27:47.802Z,7.73
2018-08-11T00:30:18.822Z,6.10
2018-08-11T00:32:47.428Z,5.80
2018-08-11T00:35:16.425Z,7.80
2018-08-11T00:37:45.372Z,8.40
2018-08-11T00:40:16.084Z,6.93
2018-08-11T00:42:45.930Z,7.80
2018-08-11T00:45:15.291Z,9.63
2018-08-11T00:47:44.068Z,7.90
2018-08-11T00:50:15.418Z,7.33
2018-08-11T00:52:44.013Z,6.63
2018-08-11T00:55:13.724Z,9.50
2018-08-11T00:57:42.660Z,5.90
2018-08-11T01:00:14.742Z,10.43
2018-08-11T01:02:44.222Z,7.30
2018-08-11T01:05:17.826Z,6.63
2018-08-11T01:07:46.831Z,9.20
2018-08-11T01:10:15.923Z,7.63
2018-08-11T01:12:45.336Z,9.10
2018-08-11T01:15:16.107Z,11.20
2018-08-11T01:17:45.443Z,6.50
2018-08-11T01:20:14.371Z,8.83
2018-08-11T01:22:43.550Z,8.40
2018-08-11T01:25:12.648Z,12.53
2018-08-11T01:27:41.171Z,8.67
2018-08-11T01:30:16.341Z,6.83
2018-08-11T01:32:44.845Z,5.50
2018-08-11T01:35:13.480Z,6.77
2018-08-11T01:37:43.035Z,5.23
2018-08-11T01:40:12.888Z,5.40
2018-08-11T01:42:42.519Z,8.53
2018-08-11T01:45:12.018Z,4.03
2018-08-11T01:47:41.009Z,9.63
2018-08-11T01:50:10.841Z,4.87
2018-08-11T01:52:40.679Z,4.50
2018-08-11T01:55:09.954Z,5.23
2018-08-11T01:57:38.497Z,4.77
2018-08-11T02:00:08.975Z,5.93
2018-08-11T02:02:37.768Z,3.77
2018-08-11T02:05:06.740Z,5.80
2018-08-11T02:07:35.562Z,3.80
2018-08-11T02:10:04.958Z,4.50
2018-08-11T02:12:33.445Z,4.30
2018-08-11T02:15:01.992Z,4.70
2018-08-11T02:17:30.606Z,3.87
2018-08-11T02:19:59.124Z,4.60
2018-08-11T02:22:27.638Z,4.53
2018-08-11T02:24:56.111Z,2.87
2018-08-11T02:27:24.769Z,3.73
2018-08-11T02:29:53.264Z,4.00
2018-08-11T02:32:21.893Z,3.97
2018-08-11T02:34:50.344Z,4.30
2018-08-11T02:37:18.846Z,5.13
2018-08-11T02:39:47.406Z,6.63
2018-08-11T02:42:15.902Z,4.83
2018-08-11T02:44:44.394Z,4.10
2018-08-11T02:47:12.956Z,3.93
2018-08-11T02:49:41.425Z,8.77
2018-08-11T02:52:10.016Z,3.30
2018-08-11T02:54:38.567Z,3.43
2018-08-11T02:57:15.890Z,3.50
2018-08-11T02:59:44.311Z,4.87
2018-08-11T03:02:12.808Z,4.67
2018-08-11T03:04:41.277Z,3.60
2018-08-11T03:07:09.831Z,3.20
2018-08-11T03:09:38.419Z,3.40
2018-08-11T03:12:07.029Z,4.50
2018-08-11T03:14:35.490Z,4.80
2018-08-11T03:17:04.003Z,4.60
2018-08-11T03:19:32.488Z,5.13
2018-08-11T03:22:00.959Z,4.77
2018-08-11T03:24:29.427Z,5.53
2018-08-11T03:26:57.903Z,4.57
2018-08-11T03:29:26.385Z,5.70
2018-08-11T03:31:54.846Z,4.70
2018-08-11T03:34:23.332Z,4.00
2018-08-11T03:36:51.782Z,3.50
2018-08-11T03:39:20.354Z,4.83
2018-08-11T03:41:48.882Z,5.30
2018-08-11T03:44:17.342Z,4.10
2018-08-11T03:46:45.786Z,4.00
2018-08-11T03:49:14.314Z,4.70
2018-08-11T03:51:42.861Z,4.63
2018-08-11T03:54:11.407Z,3.97
2018-08-11T03:56:40.078Z,4.23
2018-08-11T03:59:08.515Z,4.10
2018-08-11T04:01:36.969Z,5.10
2018-08-11T04:04:05.797Z,5.80
2018-08-11T04:06:34.305Z,7.10
2018-08-11T04:09:02.823Z,6.03
2018-08-11T04:11:31.340Z,6.13
2018-08-11T04:13:59.803Z,6.13
2018-08-11T04:16:28.287Z,5.07
2018-08-11T04:18:56.771Z,5.47
2018-08-11T04:21:25.250Z,6.23
2018-08-11T04:23:53.778Z,6.10
2018-08-11T04:26:22.305Z,5.33
2018-08-11T04:28:50.788Z,7.00
2018-08-11T04:31:19.354Z,8.93
2018-08-11T04:33:47.959Z,14.97
2018-08-11T04:36:16.468Z,6.60
2018-08-11T04:38:44.941Z,10.63
2018-08-11T04:41:13.466Z,6.70
2018-08-11T04:43:41.926Z,7.90
2018-08-11T04:46:10.570Z,8.87
2018-08-11T04:48:39.038Z,6.70
2018-08-11T04:51:07.510Z,6.37
2018-08-11T04:53:36.068Z,7.40
2018-08-11T04:56:04.590Z,6.00
2018-08-11T04:58:33.062Z,6.90
2018-08-11T05:01:01.564Z,6.53
2018-08-11T05:03:30.079Z,7.00
2018-08-11T05:05:58.640Z,4.80
2018-08-11T05:08:27.135Z,6.90
2018-08-11T05:10:55.667Z,5.37
2018-08-11T05:13:24.119Z,6.90
2018-08-11T05:15:53.135Z,9.83
2018-08-11T05:18:21.741Z,6.97
2018-08-11T05:20:50.234Z,7.63
2018-08-11T05:23:19.350Z,7.80
2018-08-11T05:25:47.915Z,10.20
2018-08-11T05:28:16.405Z,8.70
2018-08-11T05:30:44.861Z,7.77
2018-08-11T05:33:13.536Z,8.53
2018-08-11T05:35:42.034Z,8.00
2018-08-11T05:38:10.511Z,7.63
2018-08-11T05:40:39.086Z,9.60
2018-08-11T05:43:07.579Z,6.83
2018-08-11T05:45:36.018Z,12.53
2018-08-11T05:48:04.612Z,13.33
2018-08-11T05:50:33.078Z,14.40
2018-08-11T05:53:01.625Z,16.97
2018-08-11T05:55:30.151Z,15.50
2018-08-11T05:57:58.653Z,7.40
2018-08-11T06:00:27.137Z,13.90
2018-08-11T06:02:55.664Z,5.00
2018-08-11T06:05:24.213Z,8.37
2018-08-11T06:07:52.673Z,8.60
2018-08-11T06:10:21.185Z,8.67
2018-08-11T06:12:49.724Z,12.60
2018-08-11T06:15:18.274Z,12.27
2018-08-11T06:17:46.876Z,9.03
2018-08-11T06:20:15.843Z,4.70
2018-08-11T06:22:44.313Z,4.60
2018-08-11T06:25:12.825Z,3.90
2018-08-11T06:27:41.374Z,5.13
2018-08-11T06:30:10.598Z,4.10
2018-08-11T06:32:39.571Z,6.47
2018-08-11T06:35:08.688Z,7.93
2018-08-11T06:37:37.525Z,4.73
2018-08-11T06:40:07.091Z,4.53
2018-08-11T06:42:35.956Z,3.70
2018-08-11T06:45:04.877Z,7.80
2018-08-11T06:47:33.453Z,9.70
2018-08-11T06:50:01.901Z,12.70
2018-08-11T06:52:30.503Z,12.83
2018-08-11T06:54:59.053Z,15.00
2018-08-11T06:57:27.551Z,10.43
2018-08-11T06:59:56.055Z,13.63
2018-08-11T07:02:24.688Z,14.20
2018-08-11T07:04:53.179Z,11.47
2018-08-11T07:07:21.843Z,12.33
2018-08-11T07:09:50.555Z,18.20
2018-08-11T07:12:19.058Z,12.60
2018-08-11T07:14:47.584Z,10.70
2018-08-11T07:17:16.122Z,12.87
2018-08-11T07:19:44.571Z,11.73
2018-08-11T07:22:13.043Z,10.27
2018-08-11T07:24:41.521Z,11.27
2018-08-11T07:27:10.136Z,10.20
2018-08-11T07:29:38.616Z,12.37
2018-08-11T07:32:07.216Z,15.80
2018-08-11T07:34:35.671Z,8.40
2018-08-11T07:37:04.286Z,8.83
2018-08-11T07:39:32.785Z,7.80
2018-08-11T07:42:01.303Z,9.17
2018-08-11T07:44:30.122Z,8.27
2018-08-11T09:25:48.154Z,3.30
2018-08-11T09:28:16.840Z,6.13
2018-08-11T09:30:45.520Z,8.73
2018-08-11T09:33:14.113Z,6.17
2018-08-11T09:35:42.726Z,5.33
2018-08-11T09:38:11.358Z,2.67
2018-08-11T09:40:39.925Z,4.07
2018-08-11T09:43:08.498Z,6.10
2018-08-11T09:45:37.105Z,9.97
2018-08-11T09:48:05.628Z,5.20
2018-08-11T09:50:34.206Z,4.43
2018-08-11T09:53:02.777Z,5.37
2018-08-11T09:55:31.433Z,5.20
2018-08-11T09:58:00.036Z,4.80
2018-08-11T10:00:33.732Z,4.33
2018-08-11T10:03:02.321Z,5.10
2018-08-11T10:05:31.024Z,6.40
2018-08-11T10:07:59.610Z,5.33
2018-08-11T10:10:28.221Z,3.90
2018-08-11T10:12:56.786Z,5.97
2018-08-11T10:15:25.496Z,10.23
2018-08-11T10:17:54.202Z,4.23
2018-08-11T10:20:22.834Z,5.83
2018-08-11T10:22:51.439Z,4.47
2018-08-11T10:25:19.983Z,3.70
2018-08-11T10:27:48.615Z,2.87
2018-08-11T10:30:17.173Z,4.53
2018-08-11T10:32:45.745Z,4.27
2018-08-11T10:35:14.347Z,4.90
2018-08-11T10:37:42.904Z,7.23
2018-08-11T10:40:11.553Z,4.50
2018-08-11T10:42:40.117Z,4.03
2018-08-11T10:45:08.671Z,5.07
2018-08-11T10:47:37.244Z,6.70
2018-08-11T10:50:06.515Z,2.90
2018-08-11T10:52:35.433Z,3.63
2018-08-11T10:55:04.234Z,3.70
2018-08-11T10:57:32.785Z,3.50
2018-08-11T11:00:01.370Z,2.87
2018-08-11T11:02:30.062Z,6.00
2018-08-11T11:04:58.664Z,4.07
2018-08-11T11:07:27.239Z,2.63
2018-08-11T11:09:55.824Z,2.40
2018-08-11T11:12:24.530Z,3.70
2018-08-11T11:14:53.119Z,1.90
2018-08-11T11:17:21.699Z,2.50
2018-08-11T11:19:50.332Z,4.40
2018-08-11T11:22:18.879Z,2.80
2018-08-11T11:24:47.447Z,2.60
2018-08-11T11:27:16.084Z,3.93
2018-08-11T11:29:44.674Z,3.53
2018-08-11T11:32:13.257Z,3.70
2018-08-11T11:34:41.916Z,4.30
2018-08-11T11:37:10.687Z,6.33
2018-08-11T11:39:39.284Z,2.93
2018-08-11T11:42:07.912Z,5.67
2018-08-11T11:44:36.572Z,3.30
2018-08-11T11:47:05.162Z,4.40
2018-08-11T11:49:34.465Z,4.00
2018-08-11T11:52:03.030Z,2.53
2018-08-11T11:54:31.576Z,2.10
2018-08-11T11:57:00.165Z,3.77
2018-08-11T11:59:28.779Z,2.73
2018-08-11T12:01:57.435Z,2.07
2018-08-11T12:04:25.975Z,2.63
2018-08-11T12:06:54.637Z,3.20
2018-08-11T12:09:23.179Z,2.10
2018-08-11T12:11:51.736Z,2.10
2018-08-11T12:14:20.315Z,5.67
2018-08-11T12:16:48.952Z,2.10
2018-08-11T12:19:17.656Z,4.27
2018-08-11T12:21:46.203Z,3.00
2018-08-11T12:24:14.792Z,2.13
2018-08-11T12:26:43.360Z,4.07
2018-08-11T12:29:11.937Z,4.33
2018-08-11T12:31:40.559Z,2.63
2018-08-11T12:34:09.180Z,2.83
2018-08-11T12:36:37.690Z,2.13
2018-08-11T12:39:09.090Z,3.17
2018-08-11T12:41:38.090Z,4.53
2018-08-11T12:44:06.777Z,3.17
2018-08-11T12:46:35.399Z,2.03
2018-08-11T12:49:03.939Z,3.20
2018-08-11T12:51:32.514Z,2.27
2018-08-11T12:54:00.977Z,2.97
2018-08-11T12:56:29.588Z,2.90
2018-08-11T12:58:58.127Z,2.43
2018-08-11T13:01:26.857Z,5.13
2018-08-11T13:03:55.364Z,3.80
2018-08-11T13:06:23.953Z,3.07
2018-08-11T13:08:52.720Z,8.13
2018-08-11T13:11:21.262Z,2.53
2018-08-11T13:13:49.830Z,3.53
2018-08-11T13:16:18.402Z,1.50
2018-08-11T13:18:47.149Z,4.53
2018-08-11T13:21:15.769Z,5.93
2018-08-11T13:23:44.385Z,4.17
2018-08-11T13:26:12.911Z,2.50
2018-08-11T13:28:41.485Z,1.73
2018-08-11T13:31:10.104Z,2.40
2018-08-11T13:33:38.729Z,1.63
2018-08-11T13:36:07.328Z,3.73
2018-08-11T13:38:36.001Z,2.50
2018-08-11T13:41:04.539Z,2.13
2018-08-11T13:43:33.092Z,1.73
2018-08-11T13:46:01.620Z,2.77
2018-08-11T13:48:30.185Z,2.80
2018-08-11T13:50:58.829Z,6.73
2018-08-11T13:53:27.382Z,2.17
2018-08-11T13:55:56.143Z,4.70
2018-08-11T13:58:24.727Z,6.63
2018-08-11T14:00:53.310Z,2.43
2018-08-11T14:03:22.895Z,6.83
2018-08-11T14:05:51.409Z,2.10
2018-08-11T14:08:20.432Z,1.83
2018-08-11T14:10:48.966Z,2.83
2018-08-11T14:13:17.601Z,1.53
2018-08-11T14:15:46.155Z,3.13
2018-08-11T14:18:14.764Z,3.27
2018-08-11T14:20:43.334Z,3.83
2018-08-11T14:23:11.898Z,2.70
2018-08-11T14:25:40.516Z,1.93
2018-08-11T14:28:09.124Z,2.50
2018-08-11T14:30:37.688Z,2.00
2018-08-11T14:33:06.220Z,3.00
2018-08-11T14:35:34.806Z,2.80
2018-08-11T14:38:03.345Z,1.90
2018-08-11T14:40:31.933Z,1.90
2018-08-11T14:43:00.519Z,2.47
2018-08-11T14:45:29.140Z,1.83
2018-08-11T14:47:57.734Z,1.70
2018-08-11T14:50:26.274Z,4.50
2018-08-11T14:52:54.877Z,2.40
2018-08-11T14:55:30.155Z,1.50
2018-08-11T14:57:59.205Z,4.93
2018-08-11T15:00:27.726Z,2.73
2018-08-11T15:02:56.263Z,6.03
2018-08-11T15:05:24.883Z,2.17
2018-08-11T15:07:53.436Z,3.80
2018-08-11T15:10:22.001Z,1.63
2018-08-11T15:12:50.590Z,1.50
2018-08-11T15:15:19.169Z,3.03
2018-08-11T15:17:47.695Z,7.60
2018-08-11T15:20:16.293Z,2.60
2018-08-11T15:22:44.891Z,2.50
2018-08-11T15:25:13.526Z,1.60
2018-08-11T15:27:42.078Z,1.83
2018-08-11T15:30:11.932Z,1.63
2018-08-11T15:32:40.503Z,4.10
2018-08-11T15:35:09.714Z,1.10
2018-08-11T15:37:38.266Z,1.57
2018-08-11T15:40:07.230Z,2.30
2018-08-11T15:42:35.869Z,3.47
2018-08-11T15:45:04.858Z,1.57
2018-08-11T15:47:33.416Z,4.63
2018-08-11T15:50:01.995Z,1.80
2018-08-11T15:52:30.700Z,4.40
2018-08-11T15:54:59.229Z,2.50
2018-08-11T15:57:27.786Z,1.80
2018-08-11T15:59:56.328Z,1.67
2018-08-11T16:02:24.967Z,2.50
2018-08-11T16:04:53.580Z,8.10
2018-08-11T16:07:22.173Z,1.33
2018-08-11T16:09:50.839Z,5.40
2018-08-11T16:12:19.447Z,25.10
2018-08-11T16:14:48.005Z,9.33
2018-08-11T16:17:16.731Z,26.30
2018-08-11T16:19:45.323Z,9.40
2018-08-11T16:22:13.791Z,20.37
2018-08-11T16:24:42.394Z,2.13
2018-08-11T16:27:10.947Z,6.10
2018-08-11T16:29:39.527Z,3.60
2018-08-11T16:32:08.133Z,1.93
2018-08-11T16:34:36.638Z,3.10
2018-08-11T16:37:05.866Z,2.77
2018-08-11T16:39:34.443Z,1.67
2018-08-11T16:42:03.051Z,2.87
2018-08-11T16:44:31.632Z,2.50
2018-08-11T16:47:00.270Z,2.97
2018-08-11T16:49:28.807Z,3.23
2018-08-11T16:51:57.433Z,3.03
2018-08-11T16:54:26.010Z,4.87
2018-08-11T16:56:54.556Z,3.70
2018-08-11T16:59:23.173Z,2.20
2018-08-11T17:01:51.722Z,3.13
2018-08-11T17:04:20.293Z,6.07
2018-08-11T17:06:48.958Z,5.80
2018-08-11T17:09:17.508Z,3.77
2018-08-11T17:11:46.222Z,7.00
2018-08-11T17:14:14.821Z,2.83
2018-08-11T17:16:43.352Z,2.50
2018-08-11T17:19:11.893Z,2.23
2018-08-11T17:21:40.538Z,1.90
2018-08-11T17:24:09.362Z,1.57
2018-08-11T17:26:38.003Z,1.70
2018-08-11T17:29:06.583Z,1.53
2018-08-11T17:31:35.166Z,2.70
2018-08-11T17:34:03.945Z,2.07
2018-08-11T17:36:32.700Z,7.20
2018-08-11T17:39:01.323Z,3.00
2018-08-11T17:41:30.029Z,1.67
2018-08-11T17:43:58.586Z,2.10
2018-08-11T17:46:27.161Z,3.00
2018-08-11T17:48:55.874Z,3.87
2018-08-11T17:51:24.534Z,2.90
2018-08-11T17:53:53.184Z,2.97
2018-08-11T17:56:21.808Z,3.33
2018-08-11T17:58:50.447Z,2.33
2018-08-11T18:01:19.094Z,2.53
2018-08-11T18:03:47.714Z,3.87
2018-08-11T18:06:16.331Z,3.57
2018-08-11T18:08:45.023Z,2.37
2018-08-11T18:11:13.710Z,4.57
2018-08-11T18:13:42.296Z,3.00
2018-08-11T18:16:10.945Z,3.00
2018-08-11T18:18:39.583Z,7.90
2018-08-11T18:21:08.210Z,1.93
2018-08-11T18:23:36.758Z,5.80
2018-08-11T18:26:05.385Z,4.40
2018-08-11T18:28:33.969Z,3.53
2018-08-11T18:31:02.700Z,6.00
2018-08-11T18:33:31.452Z,4.13
2018-08-11T18:36:00.093Z,2.77
2018-08-11T18:38:28.824Z,8.67
2018-08-11T18:40:57.505Z,3.17
2018-08-11T18:43:26.331Z,3.50
2018-08-11T18:45:55.799Z,9.33
2018-08-11T18:48:24.379Z,95.37
2018-08-11T18:50:53.852Z,16.13
2018-08-11T18:53:22.599Z,172.23
2018-08-11T18:55:51.375Z,25.53
2018-08-11T18:58:20.234Z,19.77
2018-08-11T19:00:49.113Z,5.77
2018-08-11T19:03:17.929Z,121.80
2018-08-11T19:05:46.922Z,15.00
2018-08-11T19:08:15.841Z,19.37
2018-08-11T19:10:45.441Z,26.10
2018-08-11T19:13:14.336Z,24.77
2018-08-11T19:15:43.207Z,20.43
2018-08-11T19:18:12.732Z,43.07
2018-08-11T19:20:41.556Z,19.73
2018-08-11T19:23:10.466Z,6.93
2018-08-11T19:25:39.245Z,6.77
2018-08-11T19:28:07.916Z,4.80
2018-08-11T19:30:36.706Z,4.70
2018-08-11T19:33:05.537Z,3.47
2018-08-11T19:35:34.386Z,2.93
2018-08-11T19:38:03.170Z,5.67
2018-08-11T19:40:32.013Z,7.20
2018-08-11T19:43:00.928Z,5.33
2018-08-11T19:45:29.711Z,4.00
2018-08-11T19:47:58.536Z,11.20
2018-08-11T19:50:27.337Z,5.13
2018-08-11T19:52:56.140Z,3.93
2018-08-11T19:55:25.009Z,3.27
2018-08-11T19:57:53.856Z,4.17
2018-08-11T20:00:22.648Z,5.13
2018-08-11T20:02:52.248Z,8.20
2018-08-11T20:05:22.129Z,12.90
2018-08-11T20:07:50.909Z,9.80
2018-08-11T20:10:19.733Z,36.27
2018-08-11T20:12:49.282Z,99.97
2018-08-11T20:15:18.092Z,150.43
2018-08-11T20:17:46.815Z,257.43
2018-08-11T20:20:15.592Z,84.43
2018-08-11T20:22:44.769Z,46.83
2018-08-11T20:25:13.803Z,16.67
2018-08-11T20:27:43.056Z,5.93
2018-08-11T20:30:12.160Z,48.53
2018-08-11T20:32:40.912Z,78.20
2018-08-11T20:35:10.125Z,313.90
2018-08-11T20:37:38.950Z,212.80
2018-08-11T20:40:07.736Z,299.13
2018-08-11T20:42:36.739Z,241.40
2018-08-11T20:45:07.249Z,67.37
2018-08-11T20:47:35.979Z,183.57
2018-08-11T20:50:05.288Z,490.50
2018-08-11T20:52:34.080Z,464.77
2018-08-11T20:55:02.871Z,80.63
2018-08-11T20:57:31.610Z,33.57
2018-08-11T21:00:00.330Z,41.47
2018-08-11T21:02:29.042Z,26.03
2018-08-11T21:04:57.687Z,5.00
2018-08-11T21:07:26.387Z,4.00
2018-08-11T21:09:55.001Z,2.40
2018-08-11T21:12:23.569Z,5.53
2018-08-11T21:14:52.172Z,7.17
2018-08-11T21:17:20.756Z,9.33
2018-08-11T21:19:49.421Z,15.60
2018-08-11T21:22:18.152Z,6.90
2018-08-11T21:24:46.816Z,6.93
2018-08-11T21:27:15.454Z,5.67
2018-08-11T21:29:44.234Z,5.23
2018-08-11T21:32:12.913Z,2.77
2018-08-11T21:34:41.514Z,4.30
2018-08-11T21:37:10.139Z,4.00
2018-08-11T21:39:38.818Z,5.20
2018-08-11T21:42:07.546Z,6.43
2018-08-11T21:44:36.168Z,8.37
2018-08-11T21:47:04.854Z,3.27
2018-08-11T21:49:33.468Z,4.90
2018-08-11T21:52:02.160Z,9.23
2018-08-11T21:54:30.808Z,3.53
2018-08-11T21:56:59.468Z,2.53
2018-08-11T21:59:28.107Z,3.70
2018-08-11T22:01:56.764Z,3.63
2018-08-11T22:04:29.538Z,3.57
2018-08-11T22:06:58.202Z,4.00
2018-08-11T22:09:26.865Z,4.83
2018-08-11T22:11:55.478Z,5.00
2018-08-11T22:14:24.082Z,12.50
2018-08-11T22:16:52.683Z,4.77
2018-08-11T22:19:21.318Z,4.00
2018-08-11T22:21:49.971Z,5.10
2018-08-11T22:24:18.687Z,4.40
2018-08-11T22:26:47.312Z,4.90
2018-08-11T22:29:16.103Z,8.47
2018-08-11T22:31:44.786Z,4.80
2018-08-11T22:34:13.433Z,5.90
2018-08-11T22:36:42.032Z,4.27
2018-08-11T22:39:11.637Z,4.80
2018-08-11T22:41:40.363Z,4.60
2018-08-11T22:44:08.959Z,5.80
2018-08-11T22:46:37.611Z,8.53
2018-08-11T22:49:06.392Z,4.77
2018-08-11T22:51:35.029Z,4.37
2018-08-11T22:54:03.702Z,2.87
2018-08-11T22:56:32.267Z,3.00
2018-08-11T22:59:00.902Z,2.97
2018-08-11T23:01:29.474Z,3.27
2018-08-11T23:03:58.118Z,3.40
2018-08-11T23:06:26.729Z,3.03
2018-08-11T23:08:55.344Z,3.10
2018-08-11T23:11:23.987Z,3.10
2018-08-11T23:13:52.728Z,3.80
2018-08-11T23:16:21.337Z,3.90
2018-08-11T23:18:49.964Z,6.60
2018-08-11T23:21:18.586Z,4.67
2018-08-11T23:23:47.254Z,5.07
2018-08-11T23:26:15.852Z,4.33
2018-08-11T23:28:44.424Z,3.33
2018-08-11T23:31:13.068Z,4.13
2018-08-11T23:33:41.634Z,6.07
2018-08-11T23:36:10.263Z,4.00
2018-08-11T23:38:38.888Z,2.97
2018-08-11T23:41:07.460Z,3.10
2018-08-11T23:43:36.107Z,7.43
2018-08-11T23:46:04.750Z,2.83
2018-08-11T23:48:33.388Z,2.97
2018-08-11T23:51:02.051Z,2.10
2018-08-11T23:53:30.707Z,5.40
2018-08-11T23:55:59.285Z,3.80
2018-08-11T23:58:27.944Z,2.93
